sensor_id;sensor_type;location;lat;lon;timestamp;P1;P2;P0
66195;PMS7003;75911;45.168;5.736;2024-02-26T00:01:33;0.00;0.00;0.00
66195;PMS7003;75911;45.168;5.736;2024-02-26T00:03:59;0.00;0.00;0.00
66195;PMS7003;75911;45.168;5.736;2024-02-26T00:06:24;0.00;0.00;0.00
66195;PMS7003;75911;45.168;5.736;2024-02-26T00:08:50;0.00;0.00;0.00
66195;PMS7003;75911;45.168;5.736;2024-02-26T00:11:15;0.00;0.00;0.00
66195;PMS7003;75911;45.168;5.736;2024-02-26T00:13:41;0.00;0.00;0.00
66195;PMS7003;75911;45.168;5.736;2024-02-26T00:16:06;0.00;0.00;0.00
66195;PMS7003;75911;45.168;5.736;2024-02-26T00:18:32;0.00;0.00;0.00
66195;PMS7003;75911;45.168;5.736;2024-02-26T00:20:58;0.00;0.00;0.00
66195;PMS7003;75911;45.168;5.736;2024-02-26T00:23:23;0.00;0.00;0.00
66195;PMS7003;75911;45.168;5.736;2024-02-26T00:25:49;0.00;0.00;0.00
66195;PMS7003;75911;45.168;5.736;2024-02-26T00:28:14;0.00;0.00;0.00
66195;PMS7003;75911;45.168;5.736;2024-02-26T00:30:40;0.00;0.00;0.00
66195;PMS7003;75911;45.168;5.736;2024-02-26T00:33:05;0.00;0.00;0.00
66195;PMS7003;75911;45.168;5.736;2024-02-26T00:35:30;0.00;0.00;0.00
66195;PMS7003;75911;45.168;5.736;2024-02-26T00:37:56;0.00;0.00;0.00
66195;PMS7003;75911;45.168;5.736;2024-02-26T00:40:21;0.00;0.00;0.00
66195;PMS7003;75911;45.168;5.736;2024-02-26T00:42:46;0.00;0.00;0.00
66195;PMS7003;75911;45.168;5.736;2024-02-26T00:45:12;0.00;0.00;0.00
66195;PMS7003;75911;45.168;5.736;2024-02-26T00:47:38;0.00;0.00;0.00
66195;PMS7003;75911;45.168;5.736;2024-02-26T00:50:06;0.00;0.00;0.00
66195;PMS7003;75911;45.168;5.736;2024-02-26T00:52:32;1.00;0.00;0.00
66195;PMS7003;75911;45.168;5.736;2024-02-26T00:54:57;0.00;0.00;0.00
66195;PMS7003;75911;45.168;5.736;2024-02-26T00:57:22;0.00;0.00;0.00
66195;PMS7003;75911;45.168;5.736;2024-02-26T00:59:48;0.00;0.00;0.00
66195;PMS7003;75911;45.168;5.736;2024-02-26T01:02:13;0.00;0.00;0.00
66195;PMS7003;75911;45.168;5.736;2024-02-26T01:04:38;0.00;0.00;0.00
66195;PMS7003;75911;45.168;5.736;2024-02-26T01:07:04;0.00;0.00;0.00
66195;PMS7003;75911;45.168;5.736;2024-02-26T01:09:29;0.00;0.00;0.00
66195;PMS7003;75911;45.168;5.736;2024-02-26T01:11:54;0.00;0.00;0.00
66195;PMS7003;75911;45.168;5.736;2024-02-26T01:14:20;0.00;0.00;0.00
66195;PMS7003;75911;45.168;5.736;2024-02-26T01:16:45;0.00;0.00;0.00
66195;PMS7003;75911;45.168;5.736;2024-02-26T01:19:10;0.00;0.00;0.00
66195;PMS7003;75911;45.168;5.736;2024-02-26T01:21:36;0.00;0.00;0.00
66195;PMS7003;75911;45.168;5.736;2024-02-26T01:24:01;0.00;0.00;0.00
66195;PMS7003;75911;45.168;5.736;2024-02-26T01:26:26;0.00;0.00;0.00
66195;PMS7003;75911;45.168;5.736;2024-02-26T01:28:52;0.00;0.00;0.00
66195;PMS7003;75911;45.168;5.736;2024-02-26T01:31:17;0.00;0.00;0.00
66195;PMS7003;75911;45.168;5.736;2024-02-26T01:33:42;0.00;0.00;0.00
66195;PMS7003;75911;45.168;5.736;2024-02-26T01:36:08;0.00;0.00;0.00
66195;PMS7003;75911;45.168;5.736;2024-02-26T01:38:33;0.00;0.00;0.00
66195;PMS7003;75911;45.168;5.736;2024-02-26T01:40:58;0.00;0.00;0.00
66195;PMS7003;75911;45.168;5.736;2024-02-26T01:43:24;0.00;0.00;0.00
66195;PMS7003;75911;45.168;5.736;2024-02-26T01:45:49;0.00;0.00;0.00
66195;PMS7003;75911;45.168;5.736;2024-02-26T01:48:14;0.00;0.00;0.00
66195;PMS7003;75911;45.168;5.736;2024-02-26T01:50:40;0.00;0.00;0.00
66195;PMS7003;75911;45.168;5.736;2024-02-26T01:53:06;0.00;0.00;0.00
66195;PMS7003;75911;45.168;5.736;2024-02-26T01:55:32;0.00;0.00;0.00
66195;PMS7003;75911;45.168;5.736;2024-02-26T01:57:58;0.00;0.00;0.00
66195;PMS7003;75911;45.168;5.736;2024-02-26T02:00:24;0.00;0.00;0.00
66195;PMS7003;75911;45.168;5.736;2024-02-26T02:02:50;0.00;0.00;0.00
66195;PMS7003;75911;45.168;5.736;2024-02-26T02:05:16;0.00;0.00;0.00
66195;PMS7003;75911;45.168;5.736;2024-02-26T02:07:43;0.00;0.00;0.00
66195;PMS7003;75911;45.168;5.736;2024-02-26T02:10:09;0.00;0.00;0.00
66195;PMS7003;75911;45.168;5.736;2024-02-26T02:12:34;0.00;0.00;0.00
66195;PMS7003;75911;45.168;5.736;2024-02-26T02:15:01;0.00;0.00;0.00
66195;PMS7003;75911;45.168;5.736;2024-02-26T02:17:26;0.00;0.00;0.00
66195;PMS7003;75911;45.168;5.736;2024-02-26T02:19:53;0.00;0.00;0.00
66195;PMS7003;75911;45.168;5.736;2024-02-26T02:22:18;0.00;0.00;0.00
66195;PMS7003;75911;45.168;5.736;2024-02-26T02:24:44;0.00;0.00;0.00
66195;PMS7003;75911;45.168;5.736;2024-02-26T02:27:10;0.00;0.00;0.00
66195;PMS7003;75911;45.168;5.736;2024-02-26T02:29:35;0.00;0.00;0.00
66195;PMS7003;75911;45.168;5.736;2024-02-26T02:32:02;0.00;0.00;0.00
66195;PMS7003;75911;45.168;5.736;2024-02-26T02:34:28;0.00;0.00;0.00
66195;PMS7003;75911;45.168;5.736;2024-02-26T02:36:54;0.00;0.00;0.00
66195;PMS7003;75911;45.168;5.736;2024-02-26T02:39:20;0.00;0.00;0.00
66195;PMS7003;75911;45.168;5.736;2024-02-26T02:41:46;0.00;0.00;0.00
66195;PMS7003;75911;45.168;5.736;2024-02-26T02:44:12;0.00;0.00;0.00
66195;PMS7003;75911;45.168;5.736;2024-02-26T02:46:37;0.00;0.00;0.00
66195;PMS7003;75911;45.168;5.736;2024-02-26T02:49:03;0.00;0.00;0.00
66195;PMS7003;75911;45.168;5.736;2024-02-26T02:51:29;0.00;0.00;0.00
66195;PMS7003;75911;45.168;5.736;2024-02-26T02:53:54;0.00;0.00;0.00
66195;PMS7003;75911;45.168;5.736;2024-02-26T02:56:19;0.00;0.00;0.00
66195;PMS7003;75911;45.168;5.736;2024-02-26T02:58:45;0.00;0.00;0.00
66195;PMS7003;75911;45.168;5.736;2024-02-26T03:01:10;0.00;0.00;0.00
66195;PMS7003;75911;45.168;5.736;2024-02-26T03:03:35;0.00;0.00;0.00
66195;PMS7003;75911;45.168;5.736;2024-02-26T03:06:02;0.00;0.00;0.00
66195;PMS7003;75911;45.168;5.736;2024-02-26T03:08:28;0.00;0.00;0.00
66195;PMS7003;75911;45.168;5.736;2024-02-26T03:10:53;0.00;0.00;0.00
66195;PMS7003;75911;45.168;5.736;2024-02-26T03:13:19;0.00;0.00;0.00
66195;PMS7003;75911;45.168;5.736;2024-02-26T03:15:44;0.00;0.00;0.00
66195;PMS7003;75911;45.168;5.736;2024-02-26T03:18:10;0.00;0.00;0.00
66195;PMS7003;75911;45.168;5.736;2024-02-26T03:20:35;0.00;0.00;0.00
66195;PMS7003;75911;45.168;5.736;2024-02-26T03:23:02;0.00;0.00;0.00
66195;PMS7003;75911;45.168;5.736;2024-02-26T03:25:27;0.00;0.00;0.00
66195;PMS7003;75911;45.168;5.736;2024-02-26T03:27:52;0.00;0.00;0.00
66195;PMS7003;75911;45.168;5.736;2024-02-26T03:30:18;0.00;0.00;0.00
66195;PMS7003;75911;45.168;5.736;2024-02-26T03:32:43;0.00;0.00;0.00
66195;PMS7003;75911;45.168;5.736;2024-02-26T03:35:08;0.00;0.00;0.00
66195;PMS7003;75911;45.168;5.736;2024-02-26T03:37:34;0.00;0.00;0.00
66195;PMS7003;75911;45.168;5.736;2024-02-26T03:39:59;0.00;0.00;0.00
66195;PMS7003;75911;45.168;5.736;2024-02-26T03:42:26;0.00;0.00;0.00
66195;PMS7003;75911;45.168;5.736;2024-02-26T03:44:51;0.00;0.00;0.00
66195;PMS7003;75911;45.168;5.736;2024-02-26T03:47:17;0.00;0.00;0.00
66195;PMS7003;75911;45.168;5.736;2024-02-26T03:49:42;0.00;0.00;0.00
66195;PMS7003;75911;45.168;5.736;2024-02-26T03:52:07;0.00;0.00;0.00
66195;PMS7003;75911;45.168;5.736;2024-02-26T03:54:33;0.00;0.00;0.00
66195;PMS7003;75911;45.168;5.736;2024-02-26T03:56:58;0.00;0.00;0.00
66195;PMS7003;75911;45.168;5.736;2024-02-26T03:59:23;0.00;0.00;0.00
66195;PMS7003;75911;45.168;5.736;2024-02-26T04:01:50;0.00;0.00;0.00
66195;PMS7003;75911;45.168;5.736;2024-02-26T04:04:16;0.00;0.00;0.00
66195;PMS7003;75911;45.168;5.736;2024-02-26T04:06:47;0.00;0.00;0.00
66195;PMS7003;75911;45.168;5.736;2024-02-26T04:09:13;0.00;0.00;0.00
66195;PMS7003;75911;45.168;5.736;2024-02-26T04:11:39;0.00;0.00;0.00
66195;PMS7003;75911;45.168;5.736;2024-02-26T04:14:04;0.00;0.00;0.00
66195;PMS7003;75911;45.168;5.736;2024-02-26T04:16:33;0.00;0.00;0.00
66195;PMS7003;75911;45.168;5.736;2024-02-26T04:18:59;0.00;0.00;0.00
66195;PMS7003;75911;45.168;5.736;2024-02-26T04:21:24;0.00;0.00;0.00
66195;PMS7003;75911;45.168;5.736;2024-02-26T04:23:49;0.00;0.00;0.00
66195;PMS7003;75911;45.168;5.736;2024-02-26T04:26:15;0.00;0.00;0.00
66195;PMS7003;75911;45.168;5.736;2024-02-26T04:28:40;0.00;0.00;0.00
66195;PMS7003;75911;45.168;5.736;2024-02-26T04:31:06;0.00;0.00;0.00
66195;PMS7003;75911;45.168;5.736;2024-02-26T04:33:33;0.00;0.00;0.00
66195;PMS7003;75911;45.168;5.736;2024-02-26T04:35:59;0.00;0.00;0.00
66195;PMS7003;75911;45.168;5.736;2024-02-26T04:38:25;0.00;0.00;0.00
66195;PMS7003;75911;45.168;5.736;2024-02-26T04:40:51;0.00;0.00;0.00
66195;PMS7003;75911;45.168;5.736;2024-02-26T04:43:16;0.00;0.00;0.00
66195;PMS7003;75911;45.168;5.736;2024-02-26T04:45:43;0.00;0.00;0.00
66195;PMS7003;75911;45.168;5.736;2024-02-26T04:48:08;0.00;0.00;0.00
66195;PMS7003;75911;45.168;5.736;2024-02-26T04:50:33;0.00;0.00;0.00
66195;PMS7003;75911;45.168;5.736;2024-02-26T04:52:59;0.00;0.00;0.00
66195;PMS7003;75911;45.168;5.736;2024-02-26T04:55:24;0.00;0.00;0.00
66195;PMS7003;75911;45.168;5.736;2024-02-26T04:57:50;0.00;0.00;0.00
66195;PMS7003;75911;45.168;5.736;2024-02-26T05:00:15;0.00;0.00;0.00
66195;PMS7003;75911;45.168;5.736;2024-02-26T05:02:41;0.00;0.00;0.00
66195;PMS7003;75911;45.168;5.736;2024-02-26T05:05:06;0.00;0.00;0.00
66195;PMS7003;75911;45.168;5.736;2024-02-26T05:07:33;0.00;0.00;0.00
66195;PMS7003;75911;45.168;5.736;2024-02-26T05:09:59;0.00;0.00;0.00
66195;PMS7003;75911;45.168;5.736;2024-02-26T05:12:24;0.00;0.00;0.00
66195;PMS7003;75911;45.168;5.736;2024-02-26T05:14:50;0.00;0.00;0.00
66195;PMS7003;75911;45.168;5.736;2024-02-26T05:17:16;0.00;0.00;0.00
66195;PMS7003;75911;45.168;5.736;2024-02-26T05:19:41;0.00;0.00;0.00
66195;PMS7003;75911;45.168;5.736;2024-02-26T05:22:06;0.00;0.00;0.00
66195;PMS7003;75911;45.168;5.736;2024-02-26T05:24:32;0.00;0.00;0.00
66195;PMS7003;75911;45.168;5.736;2024-02-26T05:26:57;0.00;0.00;0.00
66195;PMS7003;75911;45.168;5.736;2024-02-26T05:29:22;0.00;0.00;0.00
66195;PMS7003;75911;45.168;5.736;2024-02-26T05:31:48;0.00;0.00;0.00
66195;PMS7003;75911;45.168;5.736;2024-02-26T05:34:13;0.00;0.00;0.00
66195;PMS7003;75911;45.168;5.736;2024-02-26T05:36:38;1.00;0.00;0.00
66195;PMS7003;75911;45.168;5.736;2024-02-26T05:39:04;1.00;0.00;0.00
66195;PMS7003;75911;45.168;5.736;2024-02-26T05:41:29;0.00;0.00;0.00
66195;PMS7003;75911;45.168;5.736;2024-02-26T05:43:55;1.00;0.00;0.00
66195;PMS7003;75911;45.168;5.736;2024-02-26T05:46:21;0.00;0.00;0.00
66195;PMS7003;75911;45.168;5.736;2024-02-26T05:48:47;0.00;0.00;0.00
66195;PMS7003;75911;45.168;5.736;2024-02-26T05:51:14;0.00;0.00;0.00
66195;PMS7003;75911;45.168;5.736;2024-02-26T05:53:40;0.00;0.00;0.00
66195;PMS7003;75911;45.168;5.736;2024-02-26T05:56:06;0.00;0.00;0.00
66195;PMS7003;75911;45.168;5.736;2024-02-26T05:58:31;1.00;0.00;0.00
66195;PMS7003;75911;45.168;5.736;2024-02-26T06:00:57;0.00;0.00;0.00
66195;PMS7003;75911;45.168;5.736;2024-02-26T06:03:22;0.00;0.00;0.00
66195;PMS7003;75911;45.168;5.736;2024-02-26T06:05:47;0.00;0.00;0.00
66195;PMS7003;75911;45.168;5.736;2024-02-26T06:08:12;0.00;0.00;0.00
66195;PMS7003;75911;45.168;5.736;2024-02-26T06:10:39;0.00;0.00;0.00
66195;PMS7003;75911;45.168;5.736;2024-02-26T06:13:04;0.00;0.00;0.00
66195;PMS7003;75911;45.168;5.736;2024-02-26T06:15:29;0.00;0.00;0.00
66195;PMS7003;75911;45.168;5.736;2024-02-26T06:17:55;0.00;0.00;0.00
66195;PMS7003;75911;45.168;5.736;2024-02-26T06:20:20;0.00;0.00;0.00
66195;PMS7003;75911;45.168;5.736;2024-02-26T06:22:45;0.00;0.00;0.00
66195;PMS7003;75911;45.168;5.736;2024-02-26T06:25:11;0.00;0.00;0.00
66195;PMS7003;75911;45.168;5.736;2024-02-26T06:27:36;0.00;0.00;0.00
66195;PMS7003;75911;45.168;5.736;2024-02-26T06:30:01;0.00;0.00;0.00
66195;PMS7003;75911;45.168;5.736;2024-02-26T06:32:27;0.00;0.00;0.00
66195;PMS7003;75911;45.168;5.736;2024-02-26T06:34:54;0.00;0.00;0.00
66195;PMS7003;75911;45.168;5.736;2024-02-26T06:37:19;0.00;0.00;0.00
66195;PMS7003;75911;45.168;5.736;2024-02-26T06:39:45;0.00;0.00;0.00
66195;PMS7003;75911;45.168;5.736;2024-02-26T06:42:10;0.00;0.00;0.00
66195;PMS7003;75911;45.168;5.736;2024-02-26T06:44:36;0.00;0.00;0.00
66195;PMS7003;75911;45.168;5.736;2024-02-26T06:47:01;0.00;0.00;0.00
66195;PMS7003;75911;45.168;5.736;2024-02-26T06:49:27;0.00;0.00;0.00
66195;PMS7003;75911;45.168;5.736;2024-02-26T06:51:53;0.00;0.00;0.00
66195;PMS7003;75911;45.168;5.736;2024-02-26T06:54:18;0.00;0.00;0.00
66195;PMS7003;75911;45.168;5.736;2024-02-26T06:56:43;0.00;0.00;0.00
66195;PMS7003;75911;45.168;5.736;2024-02-26T06:59:09;0.00;0.00;0.00
66195;PMS7003;75911;45.168;5.736;2024-02-26T07:01:34;1.00;0.00;0.00
66195;PMS7003;75911;45.168;5.736;2024-02-26T07:03:59;0.00;0.00;0.00
66195;PMS7003;75911;45.168;5.736;2024-02-26T07:06:25;0.33;0.00;0.00
66195;PMS7003;75911;45.168;5.736;2024-02-26T07:08:52;0.00;0.00;0.00
66195;PMS7003;75911;45.168;5.736;2024-02-26T07:11:17;0.00;0.00;0.00
66195;PMS7003;75911;45.168;5.736;2024-02-26T07:13:44;0.00;0.00;0.00
66195;PMS7003;75911;45.168;5.736;2024-02-26T07:16:09;0.00;0.00;0.00
66195;PMS7003;75911;45.168;5.736;2024-02-26T07:18:35;0.00;0.00;0.00
66195;PMS7003;75911;45.168;5.736;2024-02-26T07:21:03;0.00;0.00;0.00
66195;PMS7003;75911;45.168;5.736;2024-02-26T07:23:29;0.67;0.00;0.00
66195;PMS7003;75911;45.168;5.736;2024-02-26T07:25:54;0.00;0.00;0.00
66195;PMS7003;75911;45.168;5.736;2024-02-26T07:28:19;0.00;0.00;0.00
66195;PMS7003;75911;45.168;5.736;2024-02-26T07:30:45;0.00;0.00;0.00
66195;PMS7003;75911;45.168;5.736;2024-02-26T07:33:10;0.00;0.00;0.00
66195;PMS7003;75911;45.168;5.736;2024-02-26T07:35:35;0.00;0.00;0.00
66195;PMS7003;75911;45.168;5.736;2024-02-26T07:38:03;0.00;0.00;0.00
66195;PMS7003;75911;45.168;5.736;2024-02-26T07:40:29;0.00;0.00;0.00
66195;PMS7003;75911;45.168;5.736;2024-02-26T07:42:54;0.00;0.00;0.00
66195;PMS7003;75911;45.168;5.736;2024-02-26T07:45:20;0.00;0.00;0.00
66195;PMS7003;75911;45.168;5.736;2024-02-26T07:47:46;0.00;0.00;0.00
66195;PMS7003;75911;45.168;5.736;2024-02-26T07:50:12;0.00;0.00;0.00
66195;PMS7003;75911;45.168;5.736;2024-02-26T07:52:37;0.00;0.00;0.00
66195;PMS7003;75911;45.168;5.736;2024-02-26T07:55:03;0.00;0.00;0.00
66195;PMS7003;75911;45.168;5.736;2024-02-26T07:57:29;0.00;0.00;0.00
66195;PMS7003;75911;45.168;5.736;2024-02-26T07:59:55;0.00;0.00;0.00
66195;PMS7003;75911;45.168;5.736;2024-02-26T08:02:20;0.67;0.00;0.00
66195;PMS7003;75911;45.168;5.736;2024-02-26T08:04:47;0.00;0.00;0.00
66195;PMS7003;75911;45.168;5.736;2024-02-26T08:07:12;0.00;0.00;0.00
66195;PMS7003;75911;45.168;5.736;2024-02-26T08:09:37;0.67;0.00;0.00
66195;PMS7003;75911;45.168;5.736;2024-02-26T08:12:03;1.00;0.00;0.00
66195;PMS7003;75911;45.168;5.736;2024-02-26T08:14:28;0.00;0.00;0.00
66195;PMS7003;75911;45.168;5.736;2024-02-26T08:16:54;0.00;0.00;0.00
66195;PMS7003;75911;45.168;5.736;2024-02-26T08:19:19;0.67;0.00;0.00
66195;PMS7003;75911;45.168;5.736;2024-02-26T08:21:44;0.00;0.00;0.00
66195;PMS7003;75911;45.168;5.736;2024-02-26T08:24:10;0.00;0.00;0.00
66195;PMS7003;75911;45.168;5.736;2024-02-26T08:26:35;0.00;0.00;0.00
66195;PMS7003;75911;45.168;5.736;2024-02-26T08:29:00;0.00;0.00;0.00
66195;PMS7003;75911;45.168;5.736;2024-02-26T08:31:26;0.00;0.00;0.00
66195;PMS7003;75911;45.168;5.736;2024-02-26T08:33:52;0.00;0.00;0.00
66195;PMS7003;75911;45.168;5.736;2024-02-26T08:36:18;0.00;0.00;0.00
66195;PMS7003;75911;45.168;5.736;2024-02-26T08:38:43;0.00;0.00;0.00
66195;PMS7003;75911;45.168;5.736;2024-02-26T08:41:08;0.00;0.00;0.00
66195;PMS7003;75911;45.168;5.736;2024-02-26T08:43:35;0.00;0.00;0.00
66195;PMS7003;75911;45.168;5.736;2024-02-26T08:46:00;0.00;0.00;0.00
66195;PMS7003;75911;45.168;5.736;2024-02-26T08:48:26;0.33;0.00;0.00
66195;PMS7003;75911;45.168;5.736;2024-02-26T08:50:51;0.00;0.00;0.00
66195;PMS7003;75911;45.168;5.736;2024-02-26T08:53:16;0.00;0.00;0.00
66195;PMS7003;75911;45.168;5.736;2024-02-26T08:55:41;1.00;0.00;0.00
66195;PMS7003;75911;45.168;5.736;2024-02-26T08:58:07;0.00;0.00;0.00
66195;PMS7003;75911;45.168;5.736;2024-02-26T09:00:32;0.00;0.00;0.00
66195;PMS7003;75911;45.168;5.736;2024-02-26T09:02:57;0.00;0.00;0.00
66195;PMS7003;75911;45.168;5.736;2024-02-26T09:05:23;0.00;0.00;0.00
66195;PMS7003;75911;45.168;5.736;2024-02-26T09:07:48;0.00;0.00;0.00
66195;PMS7003;75911;45.168;5.736;2024-02-26T09:10:13;0.00;0.00;0.00
66195;PMS7003;75911;45.168;5.736;2024-02-26T09:12:39;0.00;0.00;0.00
66195;PMS7003;75911;45.168;5.736;2024-02-26T09:15:05;0.00;0.00;0.00
66195;PMS7003;75911;45.168;5.736;2024-02-26T09:17:31;0.00;0.00;0.00
66195;PMS7003;75911;45.168;5.736;2024-02-26T09:19:57;0.00;0.00;0.00
66195;PMS7003;75911;45.168;5.736;2024-02-26T09:22:22;0.00;0.00;0.00
66195;PMS7003;75911;45.168;5.736;2024-02-26T09:24:47;0.00;0.00;0.00
66195;PMS7003;75911;45.168;5.736;2024-02-26T09:27:14;0.00;0.00;0.00
66195;PMS7003;75911;45.168;5.736;2024-02-26T09:29:40;0.00;0.00;0.00
66195;PMS7003;75911;45.168;5.736;2024-02-26T09:32:05;0.67;0.00;0.00
66195;PMS7003;75911;45.168;5.736;2024-02-26T09:34:31;0.00;0.00;0.00
66195;PMS7003;75911;45.168;5.736;2024-02-26T09:36:56;0.00;0.00;0.00
66195;PMS7003;75911;45.168;5.736;2024-02-26T09:39:22;0.33;0.33;0.33
66195;PMS7003;75911;45.168;5.736;2024-02-26T09:41:47;0.00;0.00;0.00
66195;PMS7003;75911;45.168;5.736;2024-02-26T09:44:15;3.00;0.00;0.00
66195;PMS7003;75911;45.168;5.736;2024-02-26T09:46:45;0.00;0.00;0.00
66195;PMS7003;75911;45.168;5.736;2024-02-26T09:49:12;0.33;0.33;0.00
66195;PMS7003;75911;45.168;5.736;2024-02-26T09:51:40;0.00;0.00;0.00
66195;PMS7003;75911;45.168;5.736;2024-02-26T09:54:05;0.00;0.00;0.00
66195;PMS7003;75911;45.168;5.736;2024-02-26T09:56:34;2.00;0.00;0.00
66195;PMS7003;75911;45.168;5.736;2024-02-26T09:59:00;1.00;1.00;0.00
66195;PMS7003;75911;45.168;5.736;2024-02-26T10:01:31;1.00;0.00;0.00
66195;PMS7003;75911;45.168;5.736;2024-02-26T10:03:59;0.00;0.00;0.00
66195;PMS7003;75911;45.168;5.736;2024-02-26T10:06:28;2.00;1.00;1.00
66195;PMS7003;75911;45.168;5.736;2024-02-26T10:08:57;0.00;0.00;0.00
66195;PMS7003;75911;45.168;5.736;2024-02-26T10:11:23;0.00;0.00;0.00
66195;PMS7003;75911;45.168;5.736;2024-02-26T10:13:49;0.00;0.00;0.00
66195;PMS7003;75911;45.168;5.736;2024-02-26T10:16:15;0.00;0.00;0.00
66195;PMS7003;75911;45.168;5.736;2024-02-26T10:18:47;2.33;1.00;1.00
66195;PMS7003;75911;45.168;5.736;2024-02-26T10:21:17;1.00;1.00;0.00
66195;PMS7003;75911;45.168;5.736;2024-02-26T10:23:46;2.00;1.00;0.33
66195;PMS7003;75911;45.168;5.736;2024-02-26T10:26:15;1.33;1.00;1.00
66195;PMS7003;75911;45.168;5.736;2024-02-26T10:28:41;0.00;0.00;0.00
66195;PMS7003;75911;45.168;5.736;2024-02-26T10:31:08;1.00;0.00;0.00
66195;PMS7003;75911;45.168;5.736;2024-02-26T10:33:34;1.00;1.00;1.00
66195;PMS7003;75911;45.168;5.736;2024-02-26T10:36:01;2.00;1.00;1.00
66195;PMS7003;75911;45.168;5.736;2024-02-26T10:38:27;0.67;0.33;0.33
66195;PMS7003;75911;45.168;5.736;2024-02-26T10:40:54;1.00;1.00;1.00
66195;PMS7003;75911;45.168;5.736;2024-02-26T10:43:20;0.33;0.33;0.33
66195;PMS7003;75911;45.168;5.736;2024-02-26T10:45:45;1.00;0.00;0.00
66195;PMS7003;75911;45.168;5.736;2024-02-26T10:48:13;1.00;0.67;0.67
66195;PMS7003;75911;45.168;5.736;2024-02-26T10:50:39;0.33;0.33;0.33
66195;PMS7003;75911;45.168;5.736;2024-02-26T10:53:07;2.00;1.00;0.00
66195;PMS7003;75911;45.168;5.736;2024-02-26T10:55:41;0.67;0.67;0.67
66195;PMS7003;75911;45.168;5.736;2024-02-26T10:58:10;1.00;1.00;1.00
66195;PMS7003;75911;45.168;5.736;2024-02-26T11:00:38;0.67;0.00;0.00
66195;PMS7003;75911;45.168;5.736;2024-02-26T11:03:05;1.00;0.00;0.00
66195;PMS7003;75911;45.168;5.736;2024-02-26T11:05:32;2.67;0.00;0.00
66195;PMS7003;75911;45.168;5.736;2024-02-26T11:07:59;0.33;0.00;0.00
66195;PMS7003;75911;45.168;5.736;2024-02-26T11:10:26;2.00;0.00;0.00
66195;PMS7003;75911;45.168;5.736;2024-02-26T11:12:55;1.00;1.00;0.00
66195;PMS7003;75911;45.168;5.736;2024-02-26T11:15:22;0.67;0.67;0.00
66195;PMS7003;75911;45.168;5.736;2024-02-26T11:17:47;1.00;1.00;1.00
66195;PMS7003;75911;45.168;5.736;2024-02-26T11:20:13;1.00;1.00;0.00
66195;PMS7003;75911;45.168;5.736;2024-02-26T11:22:39;4.00;3.67;3.00
66195;PMS7003;75911;45.168;5.736;2024-02-26T11:25:05;20.25;18.00;14.00
66195;PMS7003;75911;45.168;5.736;2024-02-26T11:27:34;40.50;35.75;26.00
66195;PMS7003;75911;45.168;5.736;2024-02-26T11:30:04;57.50;46.75;32.25
66195;PMS7003;75911;45.168;5.736;2024-02-26T11:32:35;78.00;66.67;46.67
66195;PMS7003;75911;45.168;5.736;2024-02-26T11:35:00;86.67;82.33;58.67
66195;PMS7003;75911;45.168;5.736;2024-02-26T11:37:26;99.00;90.00;65.00
66195;PMS7003;75911;45.168;5.736;2024-02-26T11:39:52;110.50;104.25;71.50
66195;PMS7003;75911;45.168;5.736;2024-02-26T11:42:18;103.75;98.75;74.25
66195;PMS7003;75911;45.168;5.736;2024-02-26T11:44:48;114.25;109.25;76.75
66195;PMS7003;75911;45.168;5.736;2024-02-26T11:47:17;114.50;107.25;77.25
66195;PMS7003;75911;45.168;5.736;2024-02-26T11:49:44;124.25;112.75;78.00
66195;PMS7003;75911;45.168;5.736;2024-02-26T11:52:09;110.75;103.25;71.75
66195;PMS7003;75911;45.168;5.736;2024-02-26T12:00:10;89.33;84.00;61.00
66195;PMS7003;75911;45.168;5.736;2024-02-26T12:05:11;88.33;86.00;60.33
66195;PMS7003;75911;45.168;5.736;2024-02-26T12:07:39;87.00;80.00;57.33
66195;PMS7003;75911;45.168;5.736;2024-02-26T12:10:17;82.33;76.67;54.33
66195;PMS7003;75911;45.168;5.736;2024-02-26T12:12:52;83.33;77.33;57.00
66195;PMS7003;75911;45.168;5.736;2024-02-26T12:15:19;77.00;71.67;49.67
66195;PMS7003;75911;45.168;5.736;2024-02-26T12:17:50;82.33;79.00;55.00
66195;PMS7003;75911;45.168;5.736;2024-02-26T12:20:16;78.00;71.33;51.67
66195;PMS7003;75911;45.168;5.736;2024-02-26T12:22:44;81.00;75.00;55.67
66195;PMS7003;75911;45.168;5.736;2024-02-26T12:25:12;80.00;71.33;51.00
66195;PMS7003;75911;45.168;5.736;2024-02-26T12:27:38;78.00;70.33;51.67
66195;PMS7003;75911;45.168;5.736;2024-02-26T12:30:04;76.33;67.00;48.33
66195;PMS7003;75911;45.168;5.736;2024-02-26T12:32:31;79.33;72.00;50.33
66195;PMS7003;75911;45.168;5.736;2024-02-26T12:34:56;75.00;66.33;47.67
66195;PMS7003;75911;45.168;5.736;2024-02-26T12:37:22;73.33;64.00;47.67
66195;PMS7003;75911;45.168;5.736;2024-02-26T12:39:47;76.33;64.00;45.67
66195;PMS7003;75911;45.168;5.736;2024-02-26T12:42:13;106.67;95.67;65.33
66195;PMS7003;75911;45.168;5.736;2024-02-26T12:44:39;93.00;84.33;59.67
66195;PMS7003;75911;45.168;5.736;2024-02-26T12:47:04;74.33;63.67;44.33
66195;PMS7003;75911;45.168;5.736;2024-02-26T12:49:30;61.25;48.25;33.25
66195;PMS7003;75911;45.168;5.736;2024-02-26T12:51:56;51.50;41.00;29.25
66195;PMS7003;75911;45.168;5.736;2024-02-26T12:54:29;43.00;35.75;24.50
66195;PMS7003;75911;45.168;5.736;2024-02-26T12:56:56;47.00;39.75;26.50
66195;PMS7003;75911;45.168;5.736;2024-02-26T12:59:23;44.00;37.00;27.00
66195;PMS7003;75911;45.168;5.736;2024-02-26T13:01:48;49.25;39.75;26.50
66195;PMS7003;75911;45.168;5.736;2024-02-26T13:04:14;50.50;39.50;28.00
66195;PMS7003;75911;45.168;5.736;2024-02-26T13:06:40;42.50;35.50;26.00
66195;PMS7003;75911;45.168;5.736;2024-02-26T13:09:05;47.25;38.00;26.50
66195;PMS7003;75911;45.168;5.736;2024-02-26T13:11:31;47.00;37.00;28.00
66195;PMS7003;75911;45.168;5.736;2024-02-26T13:13:57;45.75;37.75;25.75
66195;PMS7003;75911;45.168;5.736;2024-02-26T13:16:23;47.75;38.50;27.25
66195;PMS7003;75911;45.168;5.736;2024-02-26T13:18:49;44.50;37.50;26.25
66195;PMS7003;75911;45.168;5.736;2024-02-26T13:21:15;47.25;38.75;27.75
66195;PMS7003;75911;45.168;5.736;2024-02-26T13:23:43;45.75;37.00;26.25
66195;PMS7003;75911;45.168;5.736;2024-02-26T13:26:13;48.50;41.00;27.50
66195;PMS7003;75911;45.168;5.736;2024-02-26T13:28:38;42.50;35.75;24.50
66195;PMS7003;75911;45.168;5.736;2024-02-26T13:31:04;50.25;38.50;28.25
66195;PMS7003;75911;45.168;5.736;2024-02-26T13:33:32;45.25;37.25;26.50
66195;PMS7003;75911;45.168;5.736;2024-02-26T13:35:58;45.25;38.25;27.25
66195;PMS7003;75911;45.168;5.736;2024-02-26T13:38:25;45.50;37.00;27.75
66195;PMS7003;75911;45.168;5.736;2024-02-26T13:40:51;37.50;34.00;25.50
66195;PMS7003;75911;45.168;5.736;2024-02-26T13:43:17;43.00;35.75;26.75
66195;PMS7003;75911;45.168;5.736;2024-02-26T13:45:42;45.75;36.50;27.25
66195;PMS7003;75911;45.168;5.736;2024-02-26T13:48:09;45.25;38.25;28.00
66195;PMS7003;75911;45.168;5.736;2024-02-26T13:50:36;56.75;45.25;31.25
66195;PMS7003;75911;45.168;5.736;2024-02-26T13:53:02;47.75;40.25;28.25
66195;PMS7003;75911;45.168;5.736;2024-02-26T13:55:27;38.00;34.00;24.75
66195;PMS7003;75911;45.168;5.736;2024-02-26T13:57:59;32.00;30.50;22.25
66195;PMS7003;75911;45.168;5.736;2024-02-26T14:00:28;29.50;28.50;21.75
66195;PMS7003;75911;45.168;5.736;2024-02-26T14:02:57;30.75;30.00;22.25
66195;PMS7003;75911;45.168;5.736;2024-02-26T14:05:23;32.25;27.25;20.00
66195;PMS7003;75911;45.168;5.736;2024-02-26T14:07:48;26.75;25.50;19.50
66195;PMS7003;75911;45.168;5.736;2024-02-26T14:10:14;21.75;21.75;16.25
66195;PMS7003;75911;45.168;5.736;2024-02-26T14:12:40;24.25;21.50;18.00
66195;PMS7003;75911;45.168;5.736;2024-02-26T14:15:06;24.50;24.50;18.75